Time;durP1;ratioP1;P1;durP2;ratioP2;P2;SDS_P1;SDS_P2;PMS_P1;PMS_P2;Temp;Humidity;BMP_temperature;BMP_pressure;BME280_temperature;BME280_humidity;BME280_pressure;Samples;Min_cycle;Max_cycle;Signal;HPM_P1;HPM_P2
2021/03/01 00:02:12;;;;;;;50.60;35.20;;;;;;;4.55;77.96;100509.90;123395;1102;64915;-78
2021/03/01 00:04:38;;;;;;;56.97;37.47;;;;;;;4.55;77.75;100518.68;123379;1102;65058;-79
2021/03/01 00:07:05;;;;;;;60.37;38.23;;;;;;;4.55;77.51;100525.73;123763;1102;64857;-79
2021/03/01 00:09:31;;;;;;;49.93;35.27;;;;;;;4.53;77.64;100522.25;123456;1102;64971;-79
2021/03/01 00:11:57;;;;;;;44.10;31.53;;;;;;;4.49;77.49;100533.78;123441;1102;64988;-79
2021/03/01 00:14:23;;;;;;;39.13;29.67;;;;;;;4.46;77.37;100537.34;123802;1102;64885;-78
2021/03/01 00:16:50;;;;;;;37.40;28.25;;;;;;;4.44;78.09;100539.13;123386;1102;65023;-78
2021/03/01 00:19:16;;;;;;;36.17;27.53;;;;;;;4.42;77.94;100543.55;123402;1102;64976;-79
2021/03/01 00:21:43;;;;;;;37.37;25.87;;;;;;;4.39;78.05;100539.20;123783;1102;64835;-79
2021/03/01 00:24:10;;;;;;;35.90;26.55;;;;;;;4.31;78.02;100537.59;123778;1102;65282;-79
2021/03/01 00:26:36;;;;;;;38.23;25.67;;;;;;;4.15;77.70;100539.61;123387;1102;64857;-77
2021/03/01 00:29:02;;;;;;;31.40;23.35;;;;;;;3.97;77.89;100548.67;123782;1102;64888;-80
2021/03/01 00:31:28;;;;;;;29.87;23.33;;;;;;;3.81;77.94;100562.98;123839;1102;64997;-77
2021/03/01 00:33:55;;;;;;;30.13;23.20;;;;;;;3.65;78.20;100560.55;123477;1102;65301;-78
2021/03/01 00:36:21;;;;;;;31.63;23.43;;;;;;;3.57;78.05;100561.55;123406;1102;64976;-77
2021/03/01 00:38:47;;;;;;;31.63;25.50;;;;;;;3.48;78.04;100560.78;123792;1102;64991;-77
2021/03/01 00:41:14;;;;;;;32.87;24.73;;;;;;;3.47;78.86;100550.25;123817;1100;64905;-78
2021/03/01 00:43:41;;;;;;;33.27;24.20;;;;;;;3.42;79.09;100560.88;123801;1101;64885;-78
2021/03/01 00:46:07;;;;;;;31.17;22.20;;;;;;;3.38;78.61;100566.19;123463;1102;64931;-77
2021/03/01 00:48:33;;;;;;;32.73;24.23;;;;;;;3.33;78.67;100570.64;123824;1101;64915;-78
2021/03/01 00:51:00;;;;;;;33.10;23.90;;;;;;;3.28;78.85;100566.28;123840;1102;64978;-78
2021/03/01 00:53:28;;;;;;;35.60;26.20;;;;;;;3.26;78.63;100569.83;123550;1102;64992;-78
2021/03/01 00:55:55;;;;;;;34.20;25.73;;;;;;;3.24;78.93;100576.91;123812;1102;64911;-79
2021/03/01 00:58:22;;;;;;;34.17;24.77;;;;;;;3.19;79.03;100576.08;125508;1102;63779;-77
2021/03/01 01:00:51;;;;;;;36.67;26.47;;;;;;;3.18;79.36;100579.59;124811;1106;64888;-78
2021/03/01 01:03:19;;;;;;;38.47;26.30;;;;;;;3.18;79.21;100582.22;126859;1102;62344;-78
2021/03/01 01:05:46;;;;;;;38.40;27.60;;;;;;;3.18;79.27;100584.86;126590;1102;62522;-78
2021/03/01 01:08:13;;;;;;;37.97;27.93;;;;;;;3.18;78.82;100574.31;123415;1102;64900;-80
2021/03/01 01:10:39;;;;;;;37.70;29.23;;;;;;;3.15;78.83;100576.99;123813;1102;64927;-80
2021/03/01 01:13:06;;;;;;;41.00;28.23;;;;;;;3.13;79.11;100570.86;123432;1102;64940;-79
2021/03/01 01:15:33;;;;;;;38.10;27.87;;;;;;;3.08;78.90;100556.00;123370;1105;65017;-79
2021/03/01 01:18:00;;;;;;;38.50;28.23;;;;;;;3.07;79.50;100563.91;123797;1102;64899;-78
2021/03/01 01:20:27;;;;;;;40.07;27.50;;;;;;;3.04;79.80;100567.44;123434;1102;64917;-78
2021/03/01 01:22:53;;;;;;;40.33;29.37;;;;;;;3.02;79.71;100573.62;123402;1102;64949;-79
2021/03/01 01:25:20;;;;;;;39.60;27.57;;;;;;;2.96;79.78;100578.95;123814;1102;64936;-79
2021/03/01 01:27:46;;;;;;;39.73;28.87;;;;;;;2.94;79.80;100599.16;123419;1102;64992;-79
2021/03/01 01:30:16;;;;;;;37.47;26.80;;;;;;;2.94;79.66;100588.63;123809;1102;64974;-78
2021/03/01 01:32:42;;;;;;;38.43;28.90;;;;;;;2.94;79.49;100600.03;123495;1102;64971;-78
2021/03/01 01:35:11;;;;;;;40.73;28.07;;;;;;;2.93;80.26;100610.59;123429;1102;64892;-78
2021/03/01 01:37:38;;;;;;;43.83;31.80;;;;;;;2.92;79.77;100607.06;123542;1102;64841;-78
2021/03/01 01:40:07;;;;;;;40.13;27.93;;;;;;;2.91;79.33;100607.97;123820;1101;65052;-78
2021/03/01 01:42:34;;;;;;;42.20;29.77;;;;;;;2.90;79.95;100611.50;123856;1102;65103;-78
2021/03/01 01:45:01;;;;;;;42.10;30.47;;;;;;;2.91;79.40;100605.33;123432;1102;65004;-78
2021/03/01 01:47:27;;;;;;;39.60;30.13;;;;;;;2.92;79.35;100607.06;123445;1102;64924;-79
2021/03/01 01:49:53;;;;;;;39.23;28.87;;;;;;;2.90;79.65;100590.43;123439;1102;65065;-78
2021/03/01 01:52:20;;;;;;;46.83;33.17;;;;;;;2.92;79.72;100603.56;123432;1102;64954;-78
2021/03/01 01:54:46;;;;;;;46.40;32.37;;;;;;;2.91;79.75;100610.59;123822;1102;64892;-79
2021/03/01 01:57:15;;;;;;;45.70;30.90;;;;;;;2.91;79.17;100612.36;123762;1102;64889;-78
2021/03/01 01:59:43;;;;;;;43.80;30.05;;;;;;;2.87;79.77;100603.63;123782;1101;65215;-79
2021/03/01 02:02:11;;;;;;;47.50;31.73;;;;;;;2.84;79.85;100607.16;123770;1101;64908;-78
2021/03/01 02:04:41;;;;;;;42.35;31.25;;;;;;;2.83;79.96;100617.70;123800;1102;64905;-79
2021/03/01 02:07:13;;;;;;;44.77;31.87;;;;;;;2.83;79.60;100613.30;123769;1102;64885;-78
2021/03/01 02:10:12;;;;;;;45.27;33.67;;;;;;;2.82;79.55;100611.56;123785;1102;64914;-78
2021/03/01 02:13:23;;;;;;;56.13;36.47;;;;;;;2.81;80.13;100612.44;123802;1102;64908;-78
2021/03/01 02:16:06;;;;;;;52.87;35.23;;;;;;;2.82;80.07;100613.33;123710;1102;64924;-78
2021/03/01 02:18:32;;;;;;;46.27;34.13;;;;;;;2.80;80.13;100625.62;123778;1102;64886;-78
2021/03/01 02:21:10;;;;;;;47.27;32.37;;;;;;;2.82;80.01;100615.97;123777;1102;64956;-79
2021/03/01 02:23:39;;;;;;;50.90;34.10;;;;;;;2.84;80.11;100604.53;123881;1102;64866;-79
2021/03/01 02:26:18;;;;;;;44.95;30.15;;;;;;;2.84;79.83;100611.53;123803;1102;65314;-79
2021/03/01 02:28:49;;;;;;;49.67;33.63;;;;;;;2.84;79.75;100609.80;123793;1102;64888;-79
2021/03/01 02:31:17;;;;;;;51.40;36.55;;;;;;;2.86;79.68;100618.53;123742;1102;65004;-78
2021/03/01 02:33:48;;;;;;;55.40;38.10;;;;;;;2.88;79.73;100623.80;123409;1102;64985;-79
2021/03/01 02:36:43;;;;;;;50.80;35.00;;;;;;;2.89;79.60;100619.40;123438;1102;64910;-78
2021/03/01 02:39:10;;;;;;;50.03;34.43;;;;;;;2.90;79.59;100623.77;123755;1101;64905;-79
2021/03/01 02:41:38;;;;;;;49.93;34.67;;;;;;;2.93;79.98;100610.59;123467;1102;65016;-78
2021/03/01 02:44:06;;;;;;;49.90;34.20;;;;;;;2.94;79.84;100613.19;123792;1102;64988;-78
2021/03/01 02:46:34;;;;;;;46.07;32.90;;;;;;;2.98;79.67;100619.33;123808;1102;64908;-78
2021/03/01 02:49:01;;;;;;;50.43;33.13;;;;;;;3.01;79.42;100616.66;123817;1102;64920;-78
2021/03/01 02:51:29;;;;;;;49.80;36.07;;;;;;;2.99;79.85;100616.66;123816;1102;64832;-79
2021/03/01 02:53:58;;;;;;;52.60;35.93;;;;;;;2.99;79.91;100615.79;123455;1102;64892;-78
2021/03/01 02:56:25;;;;;;;54.73;35.60;;;;;;;3.00;80.05;100606.98;123836;1102;64886;-78
2021/03/01 02:58:52;;;;;;;50.60;35.87;;;;;;;3.03;79.46;100606.98;123764;1102;64968;-79
2021/03/01 03:01:21;;;;;;;49.67;32.80;;;;;;;3.02;79.71;100616.63;123736;1102;64905;-78
2021/03/01 03:03:49;;;;;;;46.00;32.17;;;;;;;3.02;79.35;100613.13;123781;1102;64825;-78
2021/03/01 03:06:19;;;;;;;44.47;31.87;;;;;;;3.03;79.87;100613.13;123776;1102;64985;-78
2021/03/01 03:08:46;;;;;;;43.70;30.35;;;;;;;3.05;79.55;100618.35;123794;1101;64965;-78
2021/03/01 03:11:17;;;;;;;43.03;30.37;;;;;;;3.07;79.60;100617.45;123776;1102;65333;-79
2021/03/01 03:13:47;;;;;;;42.25;32.45;;;;;;;3.11;79.66;100620.05;123817;1102;64882;-78
2021/03/01 03:16:15;;;;;;;46.93;34.03;;;;;;;3.12;79.57;100622.68;123851;1100;64912;-78
2021/03/01 03:18:44;;;;;;;49.17;33.73;;;;;;;3.12;79.79;100617.41;123831;1102;64911;-78
2021/03/01 03:21:13;;;;;;;47.60;32.70;;;;;;;3.11;79.32;100618.31;123781;1102;65068;-78
2021/03/01 03:23:39;;;;;;;49.13;33.03;;;;;;;3.10;79.67;100615.68;123501;1105;64994;-78
2021/03/01 03:26:07;;;;;;;40.20;30.87;;;;;;;3.08;79.71;100623.58;123829;1102;64902;-78
2021/03/01 03:28:33;;;;;;;47.37;31.87;;;;;;;3.09;79.34;100617.45;123777;1102;64889;-78
2021/03/01 03:31:00;;;;;;;56.85;35.70;;;;;;;3.08;79.59;100620.95;123789;1102;65014;-78
2021/03/01 03:33:27;;;;;;;50.50;32.15;;;;;;;3.11;79.68;100617.41;123402;1102;64985;-78
2021/03/01 03:35:54;;;;;;;44.07;31.13;;;;;;;3.13;79.51;100618.28;123819;1102;65010;-78
2021/03/01 03:38:29;;;;;;;45.00;31.57;;;;;;;3.12;79.59;100622.68;123435;1105;64909;-78
2021/03/01 03:41:01;;;;;;;42.37;29.77;;;;;;;3.11;79.18;100615.67;123817;1102;64984;-79
2021/03/01 03:43:28;;;;;;;42.93;31.33;;;;;;;3.12;79.30;100622.68;123917;1101;64991;-79
2021/03/01 03:45:57;;;;;;;41.37;30.63;;;;;;;3.13;79.27;100634.08;123798;1102;64885;-80
2021/03/01 03:48:25;;;;;;;45.43;33.83;;;;;;;3.10;79.65;100631.48;123802;1102;64905;-78
2021/03/01 03:50:58;;;;;;;43.10;31.13;;;;;;;3.08;79.23;100635.02;123437;1102;64889;-77
2021/03/01 03:53:27;;;;;;;45.05;29.35;;;;;;;3.06;79.49;100641.19;123857;1101;64837;-77
2021/03/01 03:55:59;;;;;;;39.93;27.73;;;;;;;3.05;79.55;100636.79;123841;1102;64952;-77
2021/03/01 03:58:30;;;;;;;40.00;29.03;;;;;;;3.10;79.32;100640.25;123439;1102;65001;-77
2021/03/01 04:01:00;;;;;;;39.70;29.20;;;;;;;3.12;79.65;100637.62;123491;1105;64998;-78
2021/03/01 04:03:29;;;;;;;43.23;29.60;;;;;;;3.13;79.39;100626.18;123845;1102;64914;-78
2021/03/01 04:05:58;;;;;;;39.03;28.27;;;;;;;3.12;79.31;100632.34;123827;1102;64943;-78
2021/03/01 04:08:27;;;;;;;43.90;29.77;;;;;;;3.10;79.45;100634.98;123463;1102;65019;-78
2021/03/01 04:10:55;;;;;;;44.70;29.80;;;;;;;3.08;79.28;100637.66;123821;1102;64908;-78
2021/03/01 04:13:25;;;;;;;45.80;31.93;;;;;;;3.08;79.57;100631.48;123743;1102;64924;-78
2021/03/01 04:15:51;;;;;;;70.90;40.17;;;;;;;3.09;79.56;100641.16;123836;1102;64908;-78
2021/03/01 04:18:25;;;;;;;88.53;44.90;;;;;;;3.08;79.72;100647.29;123430;1102;64889;-78
2021/03/01 04:20:55;;;;;;;62.80;38.30;;;;;;;3.10;79.52;100645.52;123478;1100;65359;-79
2021/03/01 04:23:22;;;;;;;55.33;33.90;;;;;;;3.11;79.56;100643.75;123820;1101;66152;-78
2021/03/01 04:25:51;;;;;;;49.85;32.45;;;;;;;3.11;79.81;100652.55;123456;1102;64959;-79
2021/03/01 04:28:19;;;;;;;55.20;35.10;;;;;;;3.10;79.56;100645.52;123453;1102;64883;-78
2021/03/01 04:30:47;;;;;;;53.73;35.00;;;;;;;3.11;79.46;100647.29;123455;1102;64949;-78
2021/03/01 04:33:16;;;;;;;50.17;35.17;;;;;;;3.08;79.57;100639.39;123592;1102;64880;-78
2021/03/01 04:35:43;;;;;;;47.27;33.20;;;;;;;3.09;79.89;100641.16;123420;1102;65023;-78
2021/03/01 04:38:11;;;;;;;55.97;36.60;;;;;;;3.11;80.00;100644.66;123788;1102;65007;-77
2021/03/01 04:40:38;;;;;;;48.93;35.50;;;;;;;3.11;79.52;100641.13;123805;1101;64902;-79
2021/03/01 04:43:10;;;;;;;43.87;32.77;;;;;;;3.09;79.32;100646.42;123476;1102;64930;-78
2021/03/01 04:45:40;;;;;;;46.10;33.47;;;;;;;3.09;79.30;100646.42;123825;1102;64897;-78
2021/03/01 04:48:09;;;;;;;;;;;;;;;3.13;79.36;100649.89;123462;1102;65207;-78
2021/03/01 04:50:36;;;;;;;45.17;30.50;;;;;;;3.10;79.90;100644.66;123854;1102;64863;-78
2021/03/01 04:53:03;;;;;;;51.90;35.47;;;;;;;3.08;79.70;100650.83;123867;1102;64933;-78
2021/03/01 04:55:30;;;;;;;49.23;35.37;;;;;;;3.08;79.71;100648.19;123418;1102;64872;-79
2021/03/01 04:57:57;;;;;;;53.77;36.97;;;;;;;3.06;79.66;100651.72;123772;1102;64835;-79
2021/03/01 05:00:24;;;;;;;54.77;38.47;;;;;;;3.04;79.74;100656.12;123752;1102;64953;-79
2021/03/01 05:02:52;;;;;;;49.33;33.80;;;;;;;3.03;79.95;100649.12;123830;1102;64956;-79
2021/03/01 05:05:19;;;;;;;47.73;33.37;;;;;;;3.01;79.74;100656.16;123932;1102;64931;-79
2021/03/01 05:07:48;;;;;;;49.63;34.13;;;;;;;3.02;79.85;100658.77;124007;1102;64984;-78
2021/03/01 05:10:15;;;;;;;52.47;35.83;;;;;;;3.04;80.25;100671.93;126780;1102;62817;-78
2021/03/01 05:12:41;;;;;;;49.73;34.40;;;;;;;3.04;79.91;100664.89;126529;1102;64889;-78
2021/03/01 05:15:08;;;;;;;49.33;34.57;;;;;;;3.06;80.18;100662.27;123830;1102;64910;-80
2021/03/01 05:17:38;;;;;;;48.40;34.17;;;;;;;3.04;80.23;100664.03;123772;1102;64880;-79
2021/03/01 05:20:05;;;;;;;52.65;37.63;;;;;;;3.00;80.10;100679.00;123787;1102;64893;-79
2021/03/01 05:22:31;;;;;;;49.23;35.60;;;;;;;3.01;80.19;100672.83;123783;1102;64921;-79
2021/03/01 05:24:58;;;;;;;47.53;34.13;;;;;;;3.04;80.36;100677.20;123808;1102;64975;-78
2021/03/01 05:27:24;;;;;;;47.20;32.50;;;;;;;3.04;79.90;100675.43;123795;1102;64969;-78
2021/03/01 05:29:50;;;;;;;48.30;33.77;;;;;;;3.04;80.40;100667.53;123462;1102;64993;-78
2021/03/01 05:32:17;;;;;;;51.65;34.40;;;;;;;3.06;80.18;100675.42;123816;1102;64984;-79
2021/03/01 05:34:43;;;;;;;51.17;37.47;;;;;;;3.07;80.25;100682.43;123457;1105;64969;-78
2021/03/01 05:37:09;;;;;;;52.53;37.67;;;;;;;3.08;80.64;100684.16;123788;1102;64940;-78
2021/03/01 05:39:35;;;;;;;59.10;37.50;;;;;;;3.07;80.66;100683.30;123417;1102;65001;-77
2021/03/01 05:42:03;;;;;;;54.33;37.23;;;;;;;3.07;80.42;100688.56;123780;1102;64948;-77
2021/03/01 05:44:30;;;;;;;53.60;35.87;;;;;;;3.05;80.48;100686.83;123819;1101;64914;-78
2021/03/01 05:46:59;;;;;;;54.83;37.93;;;;;;;3.05;80.64;100686.83;123839;1102;64946;-78
2021/03/01 05:49:26;;;;;;;;;;;;;;;3.05;80.70;100686.83;123814;1102;65014;-78
2021/03/01 05:51:58;;;;;;;52.93;35.30;;;;;;;3.02;80.37;100686.86;123415;1102;65045;-78
2021/03/01 05:54:27;;;;;;;54.97;36.50;;;;;;;3.03;80.80;100692.13;123369;1105;64876;-78
2021/03/01 05:56:54;;;;;;;58.17;40.17;;;;;;;3.01;80.86;100693.03;123433;1102;64911;-78
2021/03/01 05:59:22;;;;;;;59.93;38.33;;;;;;;2.97;80.93;100689.53;123446;1103;64982;-78
2021/03/01 06:01:49;;;;;;;52.70;35.73;;;;;;;2.98;81.44;100695.70;123390;1102;65524;-79
2021/03/01 06:04:15;;;;;;;62.80;39.90;;;;;;;2.97;80.71;100688.66;123437;1101;64940;-78
2021/03/01 06:06:42;;;;;;;57.40;37.83;;;;;;;2.99;81.46;100697.44;123793;1102;64876;-78
2021/03/01 06:09:08;;;;;;;60.63;38.10;;;;;;;2.99;81.46;100698.30;123351;1106;64944;-78
2021/03/01 06:11:35;;;;;;;53.30;35.77;;;;;;;3.00;81.14;100692.17;123380;1102;64908;-78
2021/03/01 06:14:03;;;;;;;48.93;32.83;;;;;;;3.03;81.47;100699.16;123357;1104;64982;-77
2021/03/01 06:16:30;;;;;;;50.57;33.20;;;;;;;3.04;81.51;100700.91;123472;1102;64943;-78
2021/03/01 06:18:57;;;;;;;50.17;34.20;;;;;;;3.07;81.18;100695.60;123411;1102;64908;-79
2021/03/01 06:21:23;;;;;;;52.17;34.63;;;;;;;3.11;81.91;100701.70;123439;1102;64949;-79
2021/03/01 06:23:52;;;;;;;51.50;31.87;;;;;;;3.15;81.88;100701.67;123431;1102;64985;-78
2021/03/01 06:26:29;;;;;;;52.30;34.30;;;;;;;3.20;81.37;100714.81;123754;1102;64886;-78
2021/03/01 06:29:15;;;;;;;44.13;30.47;;;;;;;3.27;81.51;100721.78;123436;1102;64882;-79
2021/03/01 06:31:46;;;;;;;48.70;32.27;;;;;;;3.34;81.33;100717.30;123793;1102;64835;-79
2021/03/01 06:34:30;;;;;;;45.13;30.17;;;;;;;3.42;80.82;100718.09;123807;1102;64892;-77
2021/03/01 06:37:16;;;;;;;44.10;30.27;;;;;;;3.46;81.29;100717.20;123804;1102;64862;-78
2021/03/01 06:39:51;;;;;;;46.37;32.73;;;;;;;3.45;81.01;100716.33;123778;1102;65346;-79
2021/03/01 06:42:23;;;;;;;53.90;36.30;;;;;;;3.52;81.22;100719.75;123478;1104;64911;-78
2021/03/01 06:44:59;;;;;;;50.50;32.53;;;;;;;3.58;81.29;100729.36;123791;1102;64878;-78
2021/03/01 06:47:48;;;;;;;45.23;30.50;;;;;;;3.63;80.58;100728.41;123800;1102;64887;-79
2021/03/01 06:50:34;;;;;;;39.00;28.30;;;;;;;3.65;81.15;100717.87;123791;1102;65218;-79
2021/03/01 06:53:10;;;;;;;42.13;30.47;;;;;;;3.67;80.78;100724.00;123392;1102;64968;-78
2021/03/01 06:55:53;;;;;;;50.33;31.83;;;;;;;3.74;80.84;100726.56;123816;1102;64920;-78
2021/03/01 06:58:20;;;;;;;47.50;31.20;;;;;;;3.80;80.40;100730.89;123798;1102;64879;-77
2021/03/01 07:01:05;;;;;;;45.90;30.37;;;;;;;3.85;80.61;100723.80;123801;1102;64882;-78
2021/03/01 07:03:33;;;;;;;49.63;31.77;;;;;;;3.90;80.65;100726.39;123809;1102;65013;-78
2021/03/01 07:06:01;;;;;;;43.97;31.97;;;;;;;3.94;80.44;100725.44;123756;1102;64959;-78
2021/03/01 07:08:37;;;;;;;44.03;28.63;;;;;;;4.01;80.38;100721.84;123861;1102;64969;-78
2021/03/01 07:11:18;;;;;;;46.63;29.30;;;;;;;4.11;80.42;100727.89;123761;1102;64902;-78
2021/03/01 07:13:45;;;;;;;42.80;31.17;;;;;;;4.17;79.92;100730.44;123841;1102;64901;-79
2021/03/01 07:16:12;;;;;;;46.77;29.77;;;;;;;4.18;79.74;100734.81;123486;1102;64908;-79
2021/03/01 07:18:40;;;;;;;40.87;27.80;;;;;;;4.18;79.98;100730.41;123792;1102;65081;-79
2021/03/01 07:21:13;;;;;;;39.37;26.57;;;;;;;4.17;79.43;100741.00;123816;1102;64896;-79
2021/03/01 07:23:47;;;;;;;35.93;25.23;;;;;;;4.16;79.87;100744.51;123801;1102;64897;-79
2021/03/01 07:26:15;;;;;;;36.97;25.60;;;;;;;4.18;79.58;100735.68;123822;1102;64920;-77
2021/03/01 07:28:50;;;;;;;43.95;27.70;;;;;;;4.23;79.75;100743.55;123443;1102;64839;-79
2021/03/01 07:31:18;;;;;;;38.93;27.80;;;;;;;4.28;79.70;100743.50;123846;1101;66071;-78
2021/03/01 07:33:44;;;;;;;41.50;26.73;;;;;;;4.38;79.67;100742.48;123757;1102;65335;-78
2021/03/01 07:36:15;;;;;;;40.37;25.37;;;;;;;4.40;79.49;100738.06;123810;1101;64898;-79
2021/03/01 07:38:43;;;;;;;35.17;24.73;;;;;;;4.41;79.06;100747.72;123438;1102;64936;-79
2021/03/01 07:41:09;;;;;;;38.13;25.60;;;;;;;4.43;78.94;100761.77;123805;1102;64981;-79
2021/03/01 07:43:42;;;;;;;41.37;28.57;;;;;;;4.45;78.97;100757.35;123799;1102;64979;-79
2021/03/01 07:46:09;;;;;;;43.73;28.17;;;;;;;4.48;78.81;100765.23;123793;1102;64909;-78
2021/03/01 07:48:42;;;;;;;40.30;26.00;;;;;;;4.52;79.01;100771.33;123812;1102;64911;-78
2021/03/01 07:51:11;;;;;;;37.23;25.63;;;;;;;4.53;78.82;100766.04;123434;1102;64968;-79
2021/03/01 07:53:54;;;;;;;33.92;25.70;;;;;;;4.61;78.98;100765.94;123567;1102;64985;-79
2021/03/01 07:56:23;;;;;;;37.87;26.73;;;;;;;4.69;78.82;100777.27;123419;1102;64998;-78
2021/03/01 07:59:04;;;;;;;40.10;27.03;;;;;;;4.77;78.62;100785.94;123690;1102;65362;-79
2021/03/01 08:01:31;;;;;;;37.77;26.77;;;;;;;4.75;78.39;100785.09;123898;1102;64908;-79
2021/03/01 08:03:58;;;;;;;44.27;29.20;;;;;;;4.73;78.36;100783.36;123778;1102;64828;-78
2021/03/01 08:06:25;;;;;;;39.83;28.00;;;;;;;4.72;78.81;100785.13;123783;1102;64904;-78
2021/03/01 08:08:53;;;;;;;35.77;24.90;;;;;;;4.77;78.00;100785.08;123753;1102;64937;-78
2021/03/01 08:11:38;;;;;;;37.97;27.47;;;;;;;4.82;78.25;100788.52;123472;1102;65022;-78
2021/03/01 08:14:13;;;;;;;38.97;27.43;;;;;;;4.84;78.18;100787.61;123781;1102;64909;-78
2021/03/01 08:16:39;;;;;;;43.23;28.57;;;;;;;4.81;78.16;100792.05;123502;1102;64960;-79
2021/03/01 08:19:06;;;;;;;42.03;27.90;;;;;;;4.79;78.34;100791.19;123816;1101;64927;-79
2021/03/01 08:22:02;;;;;;;37.35;26.10;;;;;;;4.74;77.92;100799.20;123420;1102;64870;-79
2021/03/01 08:24:49;;;;;;;41.27;27.13;;;;;;;4.75;78.16;100793.01;123759;1102;64981;-79
2021/03/01 08:27:27;;;;;;;41.03;27.47;;;;;;;4.84;78.21;100791.99;123792;1102;64893;-80
2021/03/01 08:30:32;;;;;;;40.93;27.80;;;;;;;4.89;77.83;100790.16;123815;1102;64904;-80
2021/03/01 08:33:10;;;;;;;43.37;30.80;;;;;;;4.91;77.83;100793.66;123793;1102;64898;-79
2021/03/01 08:35:51;;;;;;;42.53;31.27;;;;;;;4.97;77.96;100792.69;123803;1102;65071;-80
2021/03/01 08:38:40;;;;;;;43.63;30.20;;;;;;;5.15;77.85;100797.69;123777;1102;65023;-79
2021/03/01 08:41:07;;;;;;;40.80;26.97;;;;;;;5.22;77.33;100791.42;123668;1102;64933;-79
2021/03/01 08:43:35;;;;;;;41.75;27.70;;;;;;;5.26;77.00;100801.03;123772;1102;64902;-80
2021/03/01 08:46:07;;;;;;;35.67;24.30;;;;;;;5.36;76.81;100796.47;123498;1102;64908;-77
2021/03/01 08:48:45;;;;;;;34.13;22.60;;;;;;;5.42;76.70;100801.64;123815;1102;64979;-79
2021/03/01 08:51:12;;;;;;;37.63;25.30;;;;;;;5.50;76.21;100799.77;123495;1102;64905;-78
2021/03/01 08:53:39;;;;;;;37.60;26.47;;;;;;;5.58;76.32;100799.64;123789;1102;64908;-77
2021/03/01 08:56:05;;;;;;;37.20;26.07;;;;;;;5.68;76.02;100801.20;123832;1102;64943;-78
2021/03/01 08:58:35;;;;;;;41.37;24.30;;;;;;;5.76;76.20;100805.48;123377;1102;64978;-79
2021/03/01 09:01:05;;;;;;;32.93;22.07;;;;;;;5.75;75.27;100809.91;123756;1102;64911;-78
2021/03/01 09:03:34;;;;;;;;;;;;;;;5.73;75.27;100809.92;123824;1102;64963;-79
2021/03/01 09:06:12;;;;;;;34.47;23.33;;;;;;;5.70;75.51;100811.77;123806;1102;64896;-79
2021/03/01 09:08:42;;;;;;;36.17;24.67;;;;;;;5.71;75.03;100813.50;123848;1102;64981;-79
2021/03/01 09:11:14;;;;;;;;;;;;;;;5.76;74.84;100806.35;123875;1101;64905;-79
2021/03/01 09:13:46;;;;;;;34.77;25.00;;;;;;;5.83;74.63;100808.00;123753;1100;64867;-78
2021/03/01 09:16:40;;;;;;;31.47;20.90;;;;;;;5.90;74.03;100822.00;123898;1102;64882;-78
2021/03/01 09:19:12;;;;;;;27.73;21.77;;;;;;;5.98;74.71;100811.27;123773;1102;64931;-78
2021/03/01 09:21:42;;;;;;;31.07;21.67;;;;;;;6.07;74.46;100814.62;123880;1101;64998;-80
2021/03/01 09:24:13;;;;;;;29.03;20.80;;;;;;;6.24;74.45;100809.02;123480;1102;65273;-78
2021/03/01 09:26:45;;;;;;;30.20;21.90;;;;;;;6.39;74.22;100813.12;123800;1102;64989;-78
2021/03/01 09:29:20;;;;;;;30.70;22.27;;;;;;;6.39;73.90;100810.47;123844;1102;65001;-79
2021/03/01 09:31:49;;;;;;;31.15;20.15;;;;;;;6.28;73.21;100809.83;123871;1102;64893;-80
2021/03/01 09:34:18;;;;;;;27.33;19.03;;;;;;;6.19;73.75;100828.52;123847;1102;64912;-80
2021/03/01 09:36:50;;;;;;;24.63;17.93;;;;;;;6.18;74.00;100818.84;123844;1102;64860;-79
2021/03/01 09:42:39;;;;;;;27.37;17.67;;;;;;;6.21;73.74;100824.08;125833;1102;64696;-78
2021/03/01 09:45:06;;;;;;;28.57;19.30;;;;;;;6.22;73.84;100825.84;126153;1102;64784;-79
2021/03/01 09:47:32;;;;;;;28.80;19.60;;;;;;;6.30;73.86;100823.91;126322;1101;63585;-79
2021/03/01 09:49:59;;;;;;;30.00;20.63;;;;;;;6.29;73.20;100825.69;126093;1102;64793;-76
2021/03/01 09:52:25;;;;;;;23.30;17.63;;;;;;;6.28;73.05;100823.92;124380;1102;64854;-79
2021/03/01 09:54:52;;;;;;;22.87;16.57;;;;;;;6.31;73.26;100837.10;123758;1102;66472;-81
2021/03/01 09:57:18;;;;;;;30.57;21.47;;;;;;;6.27;73.25;100831.92;123795;1102;65298;-79
2021/03/01 09:59:44;;;;;;;28.75;19.80;;;;;;;6.27;73.09;100838.08;123403;1102;65018;-80
2021/03/01 10:02:15;;;;;;;29.10;20.07;;;;;;;6.23;72.77;100835.52;123485;1104;64930;-78
2021/03/01 10:04:43;;;;;;;30.10;20.17;;;;;;;6.23;73.09;100843.45;123407;1102;64966;-79
2021/03/01 10:07:23;;;;;;;30.75;20.70;;;;;;;6.26;72.34;100838.09;123438;1102;64909;-79
2021/03/01 10:09:51;;;;;;;26.23;19.70;;;;;;;6.23;72.81;100840.81;123787;1102;64831;-78
2021/03/01 10:12:19;;;;;;;28.95;21.85;;;;;;;6.23;72.57;100844.33;123462;1102;64981;-79
2021/03/01 10:14:46;;;;;;;27.20;20.87;;;;;;;6.23;72.55;100839.03;123794;1102;64909;-79
2021/03/01 10:17:25;;;;;;;32.63;21.40;;;;;;;6.26;72.83;100843.39;123829;1102;65078;-79
2021/03/01 10:19:52;;;;;;;36.50;27.30;;;;;;;6.22;72.39;100844.38;123769;1102;64974;-78
2021/03/01 10:22:19;;;;;;;36.00;23.83;;;;;;;6.10;72.71;100840.17;123773;1102;64909;-77
2021/03/01 10:24:48;;;;;;;34.77;24.67;;;;;;;6.08;73.00;100839.31;123429;1102;64910;-78
2021/03/01 10:27:16;;;;;;;31.47;21.73;;;;;;;6.09;72.97;100834.01;123864;1101;64883;-78
2021/03/01 10:29:49;;;;;;;34.17;21.50;;;;;;;6.14;72.83;100841.88;123725;1102;65014;-78
2021/03/01 10:32:18;;;;;;;31.40;20.40;;;;;;;6.13;72.46;100848.95;123755;1102;64902;-78
2021/03/01 10:34:45;;;;;;;34.80;21.40;;;;;;;6.17;72.48;100847.10;123786;1102;64924;-79
2021/03/01 10:37:13;;;;;;;31.73;21.63;;;;;;;6.27;72.49;100850.45;123405;1102;64869;-79
2021/03/01 10:39:46;;;;;;;34.43;22.70;;;;;;;6.34;72.76;100857.35;123753;1102;65325;-79
2021/03/01 10:42:21;;;;;;;29.23;21.77;;;;;;;6.41;72.64;100850.17;123433;1102;64933;-78
2021/03/01 10:45:03;;;;;;;31.30;22.37;;;;;;;6.43;72.51;100845.73;123778;1102;65074;-79
2021/03/01 10:47:33;;;;;;;32.70;21.87;;;;;;;6.51;73.00;100844.66;123763;1102;64943;-78
2021/03/01 10:50:19;;;;;;;34.15;23.30;;;;;;;6.57;71.95;100848.95;123765;1102;65322;-79
2021/03/01 10:52:46;;;;;;;28.67;19.93;;;;;;;6.55;72.04;100841.02;123433;1102;64960;-79
2021/03/01 10:55:12;;;;;;;30.70;20.40;;;;;;;6.56;71.78;100842.78;123783;1102;64985;-79
2021/03/01 10:57:39;;;;;;;29.07;20.40;;;;;;;6.56;71.99;100849.87;123801;1102;64901;-78
2021/03/01 11:00:06;;;;;;;31.77;21.57;;;;;;;6.55;71.78;100842.80;123748;1102;64838;-79
2021/03/01 11:02:32;;;;;;;28.50;21.00;;;;;;;6.49;71.90;100842.94;123861;1102;64889;-79
2021/03/01 11:04:59;;;;;;;27.67;20.07;;;;;;;6.45;71.69;100843.89;123751;1102;64956;-79
2021/03/01 11:07:26;;;;;;;28.63;20.63;;;;;;;6.44;72.03;100845.67;123751;1102;65065;-79
2021/03/01 11:09:53;;;;;;;27.53;20.77;;;;;;;6.52;71.73;100845.52;123793;1102;64905;-79
2021/03/01 11:12:19;;;;;;;28.10;19.63;;;;;;;6.58;71.51;100840.09;123369;1103;64885;-78
2021/03/01 11:14:46;;;;;;;25.13;18.10;;;;;;;6.61;70.84;100837.41;123805;1102;65011;-78
2021/03/01 11:17:13;;;;;;;30.27;20.23;;;;;;;6.66;71.52;100835.53;123792;1102;64893;-78
2021/03/01 11:19:40;;;;;;;26.80;19.27;;;;;;;6.70;70.78;100852.22;123808;1102;64901;-78
2021/03/01 11:22:06;;;;;;;28.73;20.90;;;;;;;6.69;71.10;100850.45;123464;1102;65000;-79
2021/03/01 11:24:33;;;;;;;26.35;19.10;;;;;;;6.69;71.13;100837.20;123440;1102;64948;-79
2021/03/01 11:26:59;;;;;;;27.57;20.37;;;;;;;6.71;71.05;100835.41;123785;1102;64991;-79